Terminal Aerodrome Forecast
Issued by NWS

Home | Current Version | Previous Version | Graphics & Text | Print | Product List | Glossary On
Versions: 1 2 3 4 5 6 7 8 9 10 11 12 13 14 15 16 17 18 19 20 21 22 23
000
FTUS43 KPAH 231133
TAFCGI
TAF
KCGI 231133Z 2312/2412 31008G15KT P6SM -SHRA BKN012 OVC020
      TEMPO 2312/2316 5SM -SHRA BR SCT025
     FM231600 25008KT P6SM SCT025 SCT080
     FM240100 29009KT P6SM SCT060=

USA.gov is the U.S. government's official web portal to all federal, state and local government web resources and services.